sensor_id;sensor_type;location;lat;lon;timestamp;temperature;humidity
21928;DHT22;11128;51.096;17.190;2023-03-18T00:04:26;3.30;1.00
21928;DHT22;11128;51.096;17.190;2023-03-18T00:09:27;3.20;1.00
21928;DHT22;11128;51.096;17.190;2023-03-18T00:14:28;3.10;1.00
21928;DHT22;11128;51.096;17.190;2023-03-18T00:19:30;3.10;1.00
21928;DHT22;11128;51.096;17.190;2023-03-18T00:24:33;3.10;1.00
21928;DHT22;11128;51.096;17.190;2023-03-18T00:29:34;3.10;1.00
21928;DHT22;11128;51.096;17.190;2023-03-18T00:34:35;3.00;1.00
21928;DHT22;11128;51.096;17.190;2023-03-18T00:39:36;2.90;14.70
21928;DHT22;11128;51.096;17.190;2023-03-18T00:44:38;2.90;28.50
21928;DHT22;11128;51.096;17.190;2023-03-18T00:49:40;2.80;99.90
21928;DHT22;11128;51.096;17.190;2023-03-18T00:54:41;2.80;99.90
21928;DHT22;11128;51.096;17.190;2023-03-18T00:59:43;3.10;99.90
21928;DHT22;11128;51.096;17.190;2023-03-18T01:04:44;2.70;99.90
21928;DHT22;11128;51.096;17.190;2023-03-18T01:14:48;3.00;99.90
21928;DHT22;11128;51.096;17.190;2023-03-18T01:19:49;2.80;99.90
21928;DHT22;11128;51.096;17.190;2023-03-18T01:24:51;2.60;99.90
21928;DHT22;11128;51.096;17.190;2023-03-18T01:29:52;2.50;99.90
21928;DHT22;11128;51.096;17.190;2023-03-18T01:34:54;4.00;99.90
21928;DHT22;11128;51.096;17.190;2023-03-18T01:39:56;2.50;99.90
21928;DHT22;11128;51.096;17.190;2023-03-18T01:45:21;2.50;99.90
21928;DHT22;11128;51.096;17.190;2023-03-18T01:50:29;4.20;99.90
21928;DHT22;11128;51.096;17.190;2023-03-18T01:55:32;3.30;99.90
21928;DHT22;11128;51.096;17.190;2023-03-18T02:00:36;3.10;99.90
21928;DHT22;11128;51.096;17.190;2023-03-18T02:05:41;3.50;99.90
21928;DHT22;11128;51.096;17.190;2023-03-18T02:10:43;2.40;99.90
21928;DHT22;11128;51.096;17.190;2023-03-18T02:15:50;2.80;99.90
21928;DHT22;11128;51.096;17.190;2023-03-18T02:27:00;2.30;99.90
21928;DHT22;11128;51.096;17.190;2023-03-18T02:32:04;2.30;99.90
21928;DHT22;11128;51.096;17.190;2023-03-18T02:37:06;2.20;99.90
21928;DHT22;11128;51.096;17.190;2023-03-18T02:42:11;2.20;99.90
21928;DHT22;11128;51.096;17.190;2023-03-18T02:47:18;2.10;99.90
21928;DHT22;11128;51.096;17.190;2023-03-18T02:52:20;2.00;99.90
21928;DHT22;11128;51.096;17.190;2023-03-18T02:57:22;2.10;99.90
21928;DHT22;11128;51.096;17.190;2023-03-18T03:02:23;2.00;99.90
21928;DHT22;11128;51.096;17.190;2023-03-18T03:07:26;2.00;99.90
21928;DHT22;11128;51.096;17.190;2023-03-18T03:12:27;2.00;99.90
21928;DHT22;11128;51.096;17.190;2023-03-18T03:17:29;2.00;99.90
21928;DHT22;11128;51.096;17.190;2023-03-18T03:22:30;1.90;99.90
21928;DHT22;11128;51.096;17.190;2023-03-18T03:27:32;1.90;99.90
21928;DHT22;11128;51.096;17.190;2023-03-18T03:32:33;1.90;99.90
21928;DHT22;11128;51.096;17.190;2023-03-18T03:37:34;1.90;99.90
21928;DHT22;11128;51.096;17.190;2023-03-18T03:42:36;2.00;99.90
21928;DHT22;11128;51.096;17.190;2023-03-18T03:47:37;2.10;99.90
21928;DHT22;11128;51.096;17.190;2023-03-18T03:52:38;2.10;99.90
21928;DHT22;11128;51.096;17.190;2023-03-18T03:57:39;2.20;99.90
21928;DHT22;11128;51.096;17.190;2023-03-18T04:02:42;3.30;99.90
21928;DHT22;11128;51.096;17.190;2023-03-18T04:07:43;2.20;99.90
21928;DHT22;11128;51.096;17.190;2023-03-18T04:12:46;2.20;99.90
21928;DHT22;11128;51.096;17.190;2023-03-18T04:17:48;3.10;99.90
21928;DHT22;11128;51.096;17.190;2023-03-18T04:22:50;2.60;99.90
21928;DHT22;11128;51.096;17.190;2023-03-18T04:27:51;2.30;99.90
21928;DHT22;11128;51.096;17.190;2023-03-18T04:32:53;3.00;99.90
21928;DHT22;11128;51.096;17.190;2023-03-18T04:37:54;2.40;99.90
21928;DHT22;11128;51.096;17.190;2023-03-18T04:42:56;2.40;99.90
21928;DHT22;11128;51.096;17.190;2023-03-18T04:47:57;2.40;99.90
21928;DHT22;11128;51.096;17.190;2023-03-18T04:52:58;2.50;99.90
21928;DHT22;11128;51.096;17.190;2023-03-18T04:58:00;2.50;99.90
21928;DHT22;11128;51.096;17.190;2023-03-18T05:03:01;2.60;99.90
21928;DHT22;11128;51.096;17.190;2023-03-18T05:08:03;2.60;99.90
21928;DHT22;11128;51.096;17.190;2023-03-18T05:13:05;2.70;99.90
21928;DHT22;11128;51.096;17.190;2023-03-18T05:18:06;2.70;99.90
21928;DHT22;11128;51.096;17.190;2023-03-18T05:23:08;2.80;74.80
21928;DHT22;11128;51.096;17.190;2023-03-18T05:28:10;3.00;39.70
21928;DHT22;11128;51.096;17.190;2023-03-18T05:33:13;4.10;27.90
21928;DHT22;11128;51.096;17.190;2023-03-18T05:38:14;3.10;20.50
21928;DHT22;11128;51.096;17.190;2023-03-18T05:43:16;3.20;20.80
21928;DHT22;11128;51.096;17.190;2023-03-18T05:48:17;3.30;10.10
21928;DHT22;11128;51.096;17.190;2023-03-18T05:53:19;3.40;22.40
21928;DHT22;11128;51.096;17.190;2023-03-18T05:58:20;3.40;17.90
21928;DHT22;11128;51.096;17.190;2023-03-18T06:03:21;3.50;13.60
21928;DHT22;11128;51.096;17.190;2023-03-18T06:08:24;3.60;9.20
21928;DHT22;11128;51.096;17.190;2023-03-18T06:13:25;3.70;1.00
21928;DHT22;11128;51.096;17.190;2023-03-18T06:18:27;3.80;1.00
21928;DHT22;11128;51.096;17.190;2023-03-18T06:23:28;4.90;1.00
21928;DHT22;11128;51.096;17.190;2023-03-18T06:28:30;4.20;1.00
21928;DHT22;11128;51.096;17.190;2023-03-18T06:33:31;4.30;1.00
21928;DHT22;11128;51.096;17.190;2023-03-18T06:38:32;4.50;1.00
21928;DHT22;11128;51.096;17.190;2023-03-18T06:43:34;4.60;1.00
21928;DHT22;11128;51.096;17.190;2023-03-18T06:48:35;5.10;1.00
21928;DHT22;11128;51.096;17.190;2023-03-18T06:53:40;4.80;1.00
21928;DHT22;11128;51.096;17.190;2023-03-18T06:58:42;5.40;1.00
21928;DHT22;11128;51.096;17.190;2023-03-18T07:03:43;5.40;1.00
21928;DHT22;11128;51.096;17.190;2023-03-18T07:08:45;5.70;1.00
21928;DHT22;11128;51.096;17.190;2023-03-18T07:13:47;6.00;1.00
21928;DHT22;11128;51.096;17.190;2023-03-18T07:18:48;6.20;1.00
21928;DHT22;11128;51.096;17.190;2023-03-18T07:23:50;6.30;1.00
21928;DHT22;11128;51.096;17.190;2023-03-18T07:28:55;6.40;1.00
21928;DHT22;11128;51.096;17.190;2023-03-18T07:33:56;6.60;1.00
21928;DHT22;11128;51.096;17.190;2023-03-18T07:38:58;6.80;1.00
21928;DHT22;11128;51.096;17.190;2023-03-18T07:44:00;6.90;1.00
21928;DHT22;11128;51.096;17.190;2023-03-18T07:49:01;7.10;1.00
21928;DHT22;11128;51.096;17.190;2023-03-18T07:54:02;7.30;1.00
21928;DHT22;11128;51.096;17.190;2023-03-18T07:59:04;7.60;1.00
21928;DHT22;11128;51.096;17.190;2023-03-18T08:04:06;7.90;1.00
21928;DHT22;11128;51.096;17.190;2023-03-18T08:09:08;8.10;1.00
21928;DHT22;11128;51.096;17.190;2023-03-18T08:14:09;8.30;1.00
21928;DHT22;11128;51.096;17.190;2023-03-18T08:19:10;8.40;1.00
21928;DHT22;11128;51.096;17.190;2023-03-18T08:24:11;8.60;1.00
21928;DHT22;11128;51.096;17.190;2023-03-18T08:29:13;8.90;1.00
21928;DHT22;11128;51.096;17.190;2023-03-18T08:34:14;9.20;1.00
21928;DHT22;11128;51.096;17.190;2023-03-18T08:39:15;9.60;1.00
21928;DHT22;11128;51.096;17.190;2023-03-18T08:44:17;9.90;1.00
21928;DHT22;11128;51.096;17.190;2023-03-18T08:49:18;10.00;1.00
21928;DHT22;11128;51.096;17.190;2023-03-18T08:54:19;10.20;1.00
21928;DHT22;11128;51.096;17.190;2023-03-18T08:59:21;10.10;1.00
21928;DHT22;11128;51.096;17.190;2023-03-18T09:04:23;10.20;1.00
21928;DHT22;11128;51.096;17.190;2023-03-18T09:09:26;10.40;1.00
21928;DHT22;11128;51.096;17.190;2023-03-18T09:14:27;10.80;1.00
21928;DHT22;11128;51.096;17.190;2023-03-18T09:19:28;11.00;1.00
21928;DHT22;11128;51.096;17.190;2023-03-18T09:24:29;11.40;1.00
21928;DHT22;11128;51.096;17.190;2023-03-18T09:29:31;11.60;1.00
21928;DHT22;11128;51.096;17.190;2023-03-18T09:34:32;11.70;1.00
21928;DHT22;11128;51.096;17.190;2023-03-18T09:39:34;12.30;1.00
21928;DHT22;11128;51.096;17.190;2023-03-18T09:44:35;12.50;1.00
21928;DHT22;11128;51.096;17.190;2023-03-18T10:00:32;13.00;1.00
21928;DHT22;11128;51.096;17.190;2023-03-18T10:05:43;13.50;1.00
21928;DHT22;11128;51.096;17.190;2023-03-18T10:10:48;14.00;1.00
21928;DHT22;11128;51.096;17.190;2023-03-18T10:15:54;14.40;1.00
21928;DHT22;11128;51.096;17.190;2023-03-18T10:27:09;14.90;1.00
21928;DHT22;11128;51.096;17.190;2023-03-18T10:37:05;15.50;1.00
21928;DHT22;11128;51.096;17.190;2023-03-18T10:42:21;15.50;1.00
21928;DHT22;11128;51.096;17.190;2023-03-18T10:47:27;16.00;1.00
21928;DHT22;11128;51.096;17.190;2023-03-18T10:52:35;15.90;1.00
21928;DHT22;11128;51.096;17.190;2023-03-18T10:57:37;16.10;1.00
21928;DHT22;11128;51.096;17.190;2023-03-18T11:02:39;15.90;1.00
21928;DHT22;11128;51.096;17.190;2023-03-18T11:13:01;16.30;1.00
21928;DHT22;11128;51.096;17.190;2023-03-18T11:18:03;16.40;1.00
21928;DHT22;11128;51.096;17.190;2023-03-18T11:23:05;16.60;1.00
21928;DHT22;11128;51.096;17.190;2023-03-18T11:28:22;16.80;1.00
21928;DHT22;11128;51.096;17.190;2023-03-18T11:33:28;16.60;1.00
21928;DHT22;11128;51.096;17.190;2023-03-18T11:38:36;16.50;1.00
21928;DHT22;11128;51.096;17.190;2023-03-18T11:43:38;16.60;1.00
21928;DHT22;11128;51.096;17.190;2023-03-18T11:48:42;17.00;1.00
21928;DHT22;11128;51.096;17.190;2023-03-18T11:53:52;16.50;1.00
21928;DHT22;11128;51.096;17.190;2023-03-18T12:09:40;17.60;1.00
21928;DHT22;11128;51.096;17.190;2023-03-18T12:20:04;17.90;1.00
21928;DHT22;11128;51.096;17.190;2023-03-18T12:36:10;16.80;1.00
21928;DHT22;11128;51.096;17.190;2023-03-18T12:52:03;18.80;1.00
21928;DHT22;11128;51.096;17.190;2023-03-18T12:57:33;17.70;1.00
21928;DHT22;11128;51.096;17.190;2023-03-18T13:08:09;17.60;1.00
21928;DHT22;11128;51.096;17.190;2023-03-18T13:13:20;17.60;1.00
21928;DHT22;11128;51.096;17.190;2023-03-18T13:18:30;18.10;1.00
21928;DHT22;11128;51.096;17.190;2023-03-18T13:49:44;18.70;1.00
21928;DHT22;11128;51.096;17.190;2023-03-18T13:54:45;19.20;1.00
21928;DHT22;11128;51.096;17.190;2023-03-18T13:59:47;19.30;1.00
21928;DHT22;11128;51.096;17.190;2023-03-18T14:04:50;18.80;1.00
21928;DHT22;11128;51.096;17.190;2023-03-18T14:09:54;19.10;1.00
21928;DHT22;11128;51.096;17.190;2023-03-18T14:20:37;18.70;1.00
21928;DHT22;11128;51.096;17.190;2023-03-18T14:25:40;19.00;1.00
21928;DHT22;11128;51.096;17.190;2023-03-18T14:30:47;19.10;1.00
21928;DHT22;11128;51.096;17.190;2023-03-18T14:35:59;19.50;1.00
21928;DHT22;11128;51.096;17.190;2023-03-18T14:41:10;19.40;1.00
21928;DHT22;11128;51.096;17.190;2023-03-18T14:46:21;19.00;1.00
21928;DHT22;11128;51.096;17.190;2023-03-18T14:51:25;18.70;1.00
21928;DHT22;11128;51.096;17.190;2023-03-18T14:56:35;18.10;1.00
21928;DHT22;11128;51.096;17.190;2023-03-18T15:01:39;17.60;1.00
21928;DHT22;11128;51.096;17.190;2023-03-18T15:06:44;17.30;1.00
21928;DHT22;11128;51.096;17.190;2023-03-18T15:11:45;17.30;1.00
21928;DHT22;11128;51.096;17.190;2023-03-18T15:16:49;17.10;1.00
21928;DHT22;11128;51.096;17.190;2023-03-18T15:21:51;16.50;1.00
21928;DHT22;11128;51.096;17.190;2023-03-18T15:27:04;16.20;1.00
21928;DHT22;11128;51.096;17.190;2023-03-18T15:32:17;16.40;1.00
21928;DHT22;11128;51.096;17.190;2023-03-18T15:42:32;16.20;1.00
21928;DHT22;11128;51.096;17.190;2023-03-18T15:47:34;16.00;1.00
21928;DHT22;11128;51.096;17.190;2023-03-18T15:52:41;15.70;1.00
21928;DHT22;11128;51.096;17.190;2023-03-18T15:57:43;15.50;1.00
21928;DHT22;11128;51.096;17.190;2023-03-18T16:02:45;15.10;1.00
21928;DHT22;11128;51.096;17.190;2023-03-18T16:07:47;14.80;1.00
21928;DHT22;11128;51.096;17.190;2023-03-18T16:12:58;14.60;1.00
21928;DHT22;11128;51.096;17.190;2023-03-18T16:18:00;14.30;1.00
21928;DHT22;11128;51.096;17.190;2023-03-18T16:23:03;14.10;1.00
21928;DHT22;11128;51.096;17.190;2023-03-18T16:28:05;13.90;1.00
21928;DHT22;11128;51.096;17.190;2023-03-18T16:33:11;13.80;1.00
21928;DHT22;11128;51.096;17.190;2023-03-18T16:38:16;13.60;1.00
21928;DHT22;11128;51.096;17.190;2023-03-18T16:43:26;13.50;1.00
21928;DHT22;11128;51.096;17.190;2023-03-18T16:48:28;13.20;1.00
21928;DHT22;11128;51.096;17.190;2023-03-18T16:53:30;13.00;1.00
21928;DHT22;11128;51.096;17.190;2023-03-18T16:58:34;12.90;1.00
21928;DHT22;11128;51.096;17.190;2023-03-18T17:03:35;12.70;1.00
21928;DHT22;11128;51.096;17.190;2023-03-18T17:08:36;12.60;1.00
21928;DHT22;11128;51.096;17.190;2023-03-18T17:13:38;12.40;1.00
21928;DHT22;11128;51.096;17.190;2023-03-18T17:18:40;12.20;1.00
21928;DHT22;11128;51.096;17.190;2023-03-18T17:23:41;12.00;1.00
21928;DHT22;11128;51.096;17.190;2023-03-18T17:28:45;11.90;1.00
21928;DHT22;11128;51.096;17.190;2023-03-18T17:33:47;11.70;1.00
21928;DHT22;11128;51.096;17.190;2023-03-18T17:38:49;11.50;1.00
21928;DHT22;11128;51.096;17.190;2023-03-18T17:43:56;11.40;1.00
21928;DHT22;11128;51.096;17.190;2023-03-18T17:48:58;11.70;1.00
21928;DHT22;11128;51.096;17.190;2023-03-18T17:53:59;11.20;1.00
21928;DHT22;11128;51.096;17.190;2023-03-18T17:59:01;11.10;1.00
21928;DHT22;11128;51.096;17.190;2023-03-18T18:04:04;11.10;1.00
21928;DHT22;11128;51.096;17.190;2023-03-18T18:09:06;11.00;1.00
21928;DHT22;11128;51.096;17.190;2023-03-18T18:14:23;10.80;1.00
21928;DHT22;11128;51.096;17.190;2023-03-18T18:19:26;10.70;1.00
21928;DHT22;11128;51.096;17.190;2023-03-18T18:24:30;10.60;1.00
21928;DHT22;11128;51.096;17.190;2023-03-18T18:29:33;10.50;1.00
21928;DHT22;11128;51.096;17.190;2023-03-18T18:34:34;10.30;1.00
21928;DHT22;11128;51.096;17.190;2023-03-18T18:39:36;10.20;1.00
21928;DHT22;11128;51.096;17.190;2023-03-18T18:44:37;10.10;1.00
21928;DHT22;11128;51.096;17.190;2023-03-18T18:49:38;10.00;1.00
21928;DHT22;11128;51.096;17.190;2023-03-18T18:54:41;9.80;1.00
21928;DHT22;11128;51.096;17.190;2023-03-18T18:59:42;9.70;1.00
21928;DHT22;11128;51.096;17.190;2023-03-18T19:04:43;9.60;1.00
21928;DHT22;11128;51.096;17.190;2023-03-18T19:09:45;9.50;1.00
21928;DHT22;11128;51.096;17.190;2023-03-18T19:14:47;9.40;1.00
21928;DHT22;11128;51.096;17.190;2023-03-18T19:19:49;9.40;1.00
21928;DHT22;11128;51.096;17.190;2023-03-18T19:24:53;9.30;1.00
21928;DHT22;11128;51.096;17.190;2023-03-18T19:29:56;9.20;1.00
21928;DHT22;11128;51.096;17.190;2023-03-18T19:34:58;9.00;1.00
21928;DHT22;11128;51.096;17.190;2023-03-18T19:40:05;8.90;1.00
21928;DHT22;11128;51.096;17.190;2023-03-18T19:45:14;8.80;1.00
21928;DHT22;11128;51.096;17.190;2023-03-18T19:50:17;8.80;1.00
21928;DHT22;11128;51.096;17.190;2023-03-18T19:55:20;8.70;1.00
21928;DHT22;11128;51.096;17.190;2023-03-18T20:00:24;8.70;1.00
21928;DHT22;11128;51.096;17.190;2023-03-18T20:05:26;8.50;1.00
21928;DHT22;11128;51.096;17.190;2023-03-18T20:10:27;8.50;1.00
21928;DHT22;11128;51.096;17.190;2023-03-18T20:15:30;8.40;1.00
21928;DHT22;11128;51.096;17.190;2023-03-18T20:20:32;8.30;1.00
21928;DHT22;11128;51.096;17.190;2023-03-18T20:25:36;8.30;1.00
21928;DHT22;11128;51.096;17.190;2023-03-18T20:30:40;8.30;1.00
21928;DHT22;11128;51.096;17.190;2023-03-18T20:35:43;8.30;1.00
21928;DHT22;11128;51.096;17.190;2023-03-18T20:40:45;8.30;1.00
21928;DHT22;11128;51.096;17.190;2023-03-18T20:45:49;8.30;1.00
21928;DHT22;11128;51.096;17.190;2023-03-18T20:50:51;8.10;1.00
21928;DHT22;11128;51.096;17.190;2023-03-18T20:55:55;8.00;1.00
21928;DHT22;11128;51.096;17.190;2023-03-18T21:00:56;7.90;1.00
21928;DHT22;11128;51.096;17.190;2023-03-18T21:06:00;7.90;1.00
21928;DHT22;11128;51.096;17.190;2023-03-18T21:11:04;7.90;1.00
21928;DHT22;11128;51.096;17.190;2023-03-18T21:16:08;7.80;1.00
21928;DHT22;11128;51.096;17.190;2023-03-18T21:21:22;7.80;1.00
21928;DHT22;11128;51.096;17.190;2023-03-18T21:26:24;7.70;1.00
21928;DHT22;11128;51.096;17.190;2023-03-18T21:31:28;7.70;1.00
21928;DHT22;11128;51.096;17.190;2023-03-18T21:36:33;7.70;1.00
21928;DHT22;11128;51.096;17.190;2023-03-18T21:41:34;7.60;1.00
21928;DHT22;11128;51.096;17.190;2023-03-18T21:46:36;7.60;1.00
21928;DHT22;11128;51.096;17.190;2023-03-18T21:51:38;7.50;1.00
21928;DHT22;11128;51.096;17.190;2023-03-18T21:56:39;7.50;1.00
21928;DHT22;11128;51.096;17.190;2023-03-18T22:01:48;7.40;1.00
21928;DHT22;11128;51.096;17.190;2023-03-18T22:06:50;7.40;1.00
21928;DHT22;11128;51.096;17.190;2023-03-18T22:11:51;7.40;1.00
21928;DHT22;11128;51.096;17.190;2023-03-18T22:16:52;7.50;1.00
21928;DHT22;11128;51.096;17.190;2023-03-18T22:21:54;7.50;1.00
21928;DHT22;11128;51.096;17.190;2023-03-18T22:26:56;7.50;1.00
21928;DHT22;11128;51.096;17.190;2023-03-18T22:31:57;7.30;1.00
21928;DHT22;11128;51.096;17.190;2023-03-18T22:36:58;7.30;1.00
21928;DHT22;11128;51.096;17.190;2023-03-18T22:42:00;7.20;1.00
21928;DHT22;11128;51.096;17.190;2023-03-18T22:47:01;7.20;1.00
21928;DHT22;11128;51.096;17.190;2023-03-18T22:52:03;7.00;1.00
21928;DHT22;11128;51.096;17.190;2023-03-18T22:57:04;7.00;1.00
21928;DHT22;11128;51.096;17.190;2023-03-18T23:02:16;7.00;1.00
21928;DHT22;11128;51.096;17.190;2023-03-18T23:07:30;6.90;1.00
21928;DHT22;11128;51.096;17.190;2023-03-18T23:12:32;6.80;1.00
21928;DHT22;11128;51.096;17.190;2023-03-18T23:17:34;6.70;1.00
21928;DHT22;11128;51.096;17.190;2023-03-18T23:22:36;6.60;1.00
21928;DHT22;11128;51.096;17.190;2023-03-18T23:27:37;6.50;1.00
21928;DHT22;11128;51.096;17.190;2023-03-18T23:32:39;6.20;1.00
21928;DHT22;11128;51.096;17.190;2023-03-18T23:37:41;5.90;1.00
21928;DHT22;11128;51.096;17.190;2023-03-18T23:42:43;6.20;1.00
21928;DHT22;11128;51.096;17.190;2023-03-18T23:47:44;5.80;1.00
21928;DHT22;11128;51.096;17.190;2023-03-18T23:52:46;5.90;1.00
21928;DHT22;11128;51.096;17.190;2023-03-18T23:57:48;5.80;1.00
